createdAt,value
2018-09-30T00:01:23.092Z,101474.56
2018-09-30T00:03:52.075Z,101474.45
2018-09-30T00:06:20.857Z,101487.47
2018-09-30T00:08:49.718Z,101481.70
2018-09-30T00:11:18.615Z,101472.23
2018-09-30T00:13:47.415Z,101474.00
2018-09-30T00:16:16.300Z,101459.38
2018-09-30T00:18:45.165Z,101464.89
2018-09-30T00:21:14.019Z,101454.37
2018-09-30T00:23:47.866Z,101480.41
2018-09-30T00:26:21.774Z,101485.08
2018-09-30T00:28:50.617Z,101481.56
2018-09-30T00:31:19.419Z,101470.30
2018-09-30T00:33:53.255Z,101487.89
2018-09-30T00:36:22.104Z,101482.68
2018-09-30T00:38:50.943Z,101491.61
2018-09-30T00:41:19.772Z,101494.84
2018-09-30T00:43:48.561Z,101498.19
2018-09-30T00:46:17.423Z,101507.02
2018-09-30T00:48:46.291Z,101504.63
2018-09-30T00:51:15.194Z,101510.89
2018-09-30T00:53:45.358Z,101511.98
2018-09-30T00:56:14.169Z,101500.34
2018-09-30T00:58:42.974Z,101516.69
2018-09-30T01:01:11.834Z,101522.81
2018-09-30T01:03:41.641Z,101519.58
2018-09-30T01:06:10.625Z,101514.19
2018-09-30T01:08:39.450Z,101511.77
2018-09-30T01:11:08.261Z,101503.92
2018-09-30T01:13:37.397Z,101527.02
2018-09-30T01:16:06.254Z,101530.92
2018-09-30T01:18:35.107Z,101527.23
2018-09-30T01:21:03.925Z,101531.38
2018-09-30T01:23:32.763Z,101528.03
2018-09-30T01:26:01.670Z,101495.38
2018-09-30T01:28:30.611Z,101501.20
2018-09-30T01:30:59.558Z,101516.13
2018-09-30T01:33:28.382Z,101520.66
2018-09-30T01:35:57.186Z,101524.63
2018-09-30T01:38:26.397Z,101527.55
2018-09-30T01:40:55.217Z,101516.70
2018-09-30T01:43:24.047Z,101508.28
2018-09-30T01:45:52.905Z,101515.41
2018-09-30T01:48:21.714Z,101545.45
2018-09-30T01:50:50.538Z,101506.55
2018-09-30T01:53:19.410Z,101514.41
2018-09-30T01:55:48.206Z,101523.52
2018-09-30T01:58:17.014Z,101537.07
2018-09-30T02:00:45.898Z,101539.67
2018-09-30T02:03:14.686Z,101529.17
2018-09-30T02:05:43.550Z,101554.81
2018-09-30T02:08:12.398Z,101534.92
2018-09-30T02:10:41.325Z,101526.06
2018-09-30T02:13:10.121Z,101548.77
2018-09-30T02:15:38.945Z,101547.09
2018-09-30T02:18:07.817Z,101544.09
2018-09-30T02:20:36.630Z,101555.73
2018-09-30T02:23:05.440Z,101546.53
2018-09-30T02:25:34.323Z,101550.07
2018-09-30T02:28:03.158Z,101535.23
2018-09-30T02:30:32.008Z,101544.78
2018-09-30T02:33:00.919Z,101545.99
2018-09-30T02:35:29.832Z,101540.21
2018-09-30T02:37:58.725Z,101531.47
2018-09-30T02:40:27.593Z,101552.42
2018-09-30T02:42:56.418Z,101545.25
2018-09-30T02:45:25.294Z,101552.98
2018-09-30T02:47:54.088Z,101549.38
2018-09-30T02:50:22.906Z,101563.15
2018-09-30T02:52:51.783Z,101545.48
2018-09-30T02:55:20.604Z,101548.63
2018-09-30T02:57:49.406Z,101545.77
2018-09-30T03:00:18.229Z,101566.11
2018-09-30T03:02:47.115Z,101561.85
2018-09-30T03:05:15.939Z,101567.27
2018-09-30T03:07:49.922Z,101573.06
2018-09-30T03:10:18.743Z,101547.16
2018-09-30T03:12:47.586Z,101560.33
2018-09-30T03:15:16.448Z,101545.64
2018-09-30T03:17:45.274Z,101550.05
2018-09-30T03:20:14.083Z,101552.81
2018-09-30T03:22:42.944Z,101552.13
2018-09-30T03:25:11.766Z,101555.97
2018-09-30T03:27:40.597Z,101556.32
2018-09-30T03:30:09.457Z,101573.98
2018-09-30T03:32:38.277Z,101549.82
2018-09-30T03:35:07.160Z,101564.66
2018-09-30T03:37:37.258Z,101577.20
2018-09-30T03:40:06.114Z,101552.74
2018-09-30T03:42:35.032Z,101570.08
2018-09-30T03:45:03.897Z,101566.86
2018-09-30T03:47:32.751Z,101559.16
2018-09-30T03:50:01.602Z,101576.95
2018-09-30T03:52:30.501Z,101572.45
2018-09-30T03:54:59.394Z,101566.63
2018-09-30T03:57:28.191Z,101572.16
2018-09-30T03:59:56.998Z,101546.23
2018-09-30T04:02:25.859Z,101585.20
2018-09-30T04:04:54.746Z,101595.75
2018-09-30T04:07:23.573Z,101592.24
2018-09-30T04:09:52.401Z,101587.95
2018-09-30T04:12:21.251Z,101577.02
2018-09-30T04:14:50.074Z,101591.84
2018-09-30T04:17:18.935Z,101591.01
2018-09-30T04:19:47.751Z,101587.95
2018-09-30T04:22:16.609Z,101584.36
2018-09-30T04:24:47.202Z,101596.14
2018-09-30T04:27:15.995Z,101562.12
2018-09-30T04:29:44.807Z,101605.98
2018-09-30T04:32:15.016Z,101589.48
2018-09-30T04:34:43.837Z,101587.13
2018-09-30T04:37:12.689Z,101588.33
2018-09-30T04:39:41.560Z,101601.02
2018-09-30T04:42:10.394Z,101547.61
2018-09-30T04:44:39.213Z,101575.20
2018-09-30T04:47:08.058Z,101578.19
2018-09-30T04:49:36.903Z,101598.19
2018-09-30T04:52:05.766Z,101600.03
2018-09-30T04:54:34.630Z,101624.38
2018-09-30T04:57:03.479Z,101631.11
2018-09-30T04:59:32.355Z,101633.95
2018-09-30T05:02:01.334Z,101638.39
2018-09-30T05:04:30.160Z,101629.81
2018-09-30T05:06:59.016Z,101628.45
2018-09-30T05:09:27.873Z,101653.52
2018-09-30T05:11:56.766Z,101649.08
2018-09-30T05:14:25.645Z,101656.36
2018-09-30T05:16:56.006Z,101659.11
2018-09-30T05:19:24.927Z,101665.91
2018-09-30T05:21:53.736Z,101669.10
2018-09-30T05:24:22.639Z,101675.27
2018-09-30T05:26:51.502Z,101680.45
2018-09-30T05:29:20.319Z,101672.66
2018-09-30T05:31:50.499Z,101676.47
2018-09-30T05:34:19.359Z,101684.66
2018-09-30T05:36:48.179Z,101690.46
2018-09-30T05:39:17.049Z,101696.95
2018-09-30T05:41:45.902Z,101688.38
2018-09-30T05:44:14.750Z,101690.52
2018-09-30T05:46:44.828Z,101689.00
2018-09-30T05:49:13.710Z,101696.05
2018-09-30T05:51:42.697Z,101698.41
2018-09-30T05:54:11.533Z,101696.05
2018-09-30T05:56:40.317Z,101691.55
2018-09-30T05:59:09.186Z,101698.34
2018-09-30T06:01:38.107Z,101713.93
2018-09-30T06:04:07.059Z,101711.06
2018-09-30T06:06:35.880Z,101707.38
2018-09-30T06:09:08.179Z,101707.83
2018-09-30T06:11:36.961Z,101720.67
2018-09-30T06:14:05.966Z,101719.67
2018-09-30T06:16:36.116Z,101718.50
2018-09-30T06:19:05.065Z,101724.30
2018-09-30T06:21:33.963Z,101718.65
2018-09-30T06:24:02.905Z,101732.48
2018-09-30T06:26:31.728Z,101722.16
2018-09-30T06:29:00.599Z,101730.89
2018-09-30T06:31:29.514Z,101714.00
2018-09-30T06:33:59.787Z,101700.06
2018-09-30T06:36:28.745Z,101706.74
2018-09-30T06:38:58.006Z,101723.03
2018-09-30T06:41:27.069Z,101720.38
2018-09-30T06:43:57.267Z,101717.16
2018-09-30T06:46:26.189Z,101713.80
2018-09-30T06:48:55.048Z,101723.14
2018-09-30T06:51:23.939Z,101724.61
2018-09-30T06:53:52.809Z,101713.22
2018-09-30T06:56:21.734Z,101719.26
2018-09-30T06:58:51.910Z,101709.25
2018-09-30T07:01:20.740Z,101712.20
2018-09-30T07:03:49.667Z,101719.38
2018-09-30T07:06:18.497Z,101696.14
2018-09-30T07:08:47.387Z,101715.66
2018-09-30T07:11:16.368Z,101715.17
2018-09-30T07:13:45.221Z,101710.59
2018-09-30T07:16:14.079Z,101710.36
2018-09-30T07:18:42.963Z,101719.63
2018-09-30T07:21:11.818Z,101718.17
2018-09-30T07:23:40.684Z,101711.83
2018-09-30T07:26:10.822Z,101712.13
2018-09-30T07:28:39.666Z,101716.70
2018-09-30T07:31:08.814Z,101724.28
2018-09-30T07:33:39.004Z,101727.67
2018-09-30T07:36:07.921Z,101731.79
2018-09-30T07:38:36.980Z,101735.37
2018-09-30T07:41:07.281Z,101723.15
2018-09-30T07:43:36.172Z,101726.37
2018-09-30T07:46:05.041Z,101717.67
2018-09-30T07:48:33.863Z,101736.83
2018-09-30T07:51:02.778Z,101720.95
2018-09-30T07:53:31.631Z,101719.08
2018-09-30T07:56:00.530Z,101717.39
2018-09-30T07:58:30.754Z,101724.97
2018-09-30T08:01:02.311Z,101710.66
2018-09-30T08:03:31.166Z,101719.86
2018-09-30T08:06:00.027Z,101728.34
2018-09-30T08:08:30.200Z,101739.73
2018-09-30T08:10:59.069Z,101734.53
2018-09-30T08:13:27.982Z,101725.97
2018-09-30T08:15:56.851Z,101736.61
2018-09-30T08:18:25.762Z,101726.88
2018-09-30T08:20:54.582Z,101732.22
2018-09-30T08:23:23.446Z,101727.17
2018-09-30T08:25:52.326Z,101735.77
2018-09-30T08:28:21.174Z,101720.31
2018-09-30T08:30:50.118Z,101721.75
2018-09-30T08:33:18.962Z,101748.32
2018-09-30T08:35:53.062Z,101721.29
2018-09-30T08:38:27.125Z,101718.45
2018-09-30T08:41:03.312Z,101717.39
2018-09-30T08:43:33.620Z,101711.72
2018-09-30T08:46:02.547Z,101712.86
2018-09-30T08:48:31.715Z,101718.73
2018-09-30T08:51:00.578Z,101707.87
2018-09-30T08:53:29.525Z,101697.67
2018-09-30T08:55:58.961Z,101706.78
2018-09-30T08:58:28.657Z,101709.53
2018-09-30T09:00:57.573Z,101694.20
2018-09-30T09:03:26.971Z,101701.55
2018-09-30T09:05:55.917Z,101699.77
2018-09-30T09:08:24.772Z,101692.48
2018-09-30T09:10:53.675Z,101718.11
2018-09-30T09:13:22.568Z,101696.99
2018-09-30T09:15:51.402Z,101691.15
2018-09-30T09:18:20.397Z,101721.25
2018-09-30T09:20:49.410Z,101709.31
2018-09-30T09:23:18.341Z,101697.49
2018-09-30T09:25:47.285Z,101702.80
2018-09-30T09:28:16.128Z,101711.14
2018-09-30T09:30:45.023Z,101711.53
2018-09-30T09:33:15.121Z,101718.95
2018-09-30T09:35:44.020Z,101719.88
2018-09-30T09:38:12.863Z,101711.92
2018-09-30T09:40:43.015Z,101711.31
2018-09-30T09:43:11.874Z,101703.77
2018-09-30T09:45:40.716Z,101712.25
2018-09-30T09:48:09.757Z,101702.45
2018-09-30T09:50:38.607Z,101697.00
2018-09-30T09:53:07.558Z,101679.81
2018-09-30T09:55:37.814Z,101696.59
2018-09-30T09:58:06.671Z,101706.09
2018-09-30T10:00:40.650Z,101707.46
2018-09-30T10:03:09.567Z,101711.58
2018-09-30T10:05:38.427Z,101718.09
2018-09-30T10:08:07.704Z,101697.59
2018-09-30T10:10:36.747Z,101691.29
2018-09-30T10:13:05.703Z,101679.66
2018-09-30T10:15:34.643Z,101688.81
2018-09-30T10:18:03.537Z,101659.22
2018-09-30T10:20:32.392Z,101690.73
2018-09-30T10:23:02.639Z,101643.44
2018-09-30T10:25:31.498Z,101674.28
2018-09-30T10:28:00.323Z,101667.86
2018-09-30T10:30:29.267Z,101675.93
2018-09-30T10:32:58.131Z,101682.79
2018-09-30T10:35:27.059Z,101652.15
2018-09-30T10:37:58.734Z,101643.42
2018-09-30T10:40:27.580Z,101670.92
2018-09-30T10:42:56.418Z,101660.77
2018-09-30T10:45:25.254Z,101655.13
2018-09-30T10:47:54.131Z,101647.48
2018-09-30T10:50:22.934Z,101644.48
2018-09-30T10:52:51.744Z,101648.98
2018-09-30T10:55:20.598Z,101658.30
2018-09-30T10:57:49.430Z,101652.70
2018-09-30T11:00:18.246Z,101648.78
2018-09-30T11:02:47.062Z,101646.55
2018-09-30T11:05:17.581Z,101646.37
2018-09-30T11:07:46.398Z,101647.86
2018-09-30T11:10:15.317Z,101637.82
2018-09-30T11:12:44.091Z,101640.16
2018-09-30T11:15:12.919Z,101623.19
2018-09-30T11:17:43.025Z,101627.94
2018-09-30T11:20:11.876Z,101624.94
2018-09-30T11:22:40.701Z,101637.45
2018-09-30T11:25:10.807Z,101637.81
2018-09-30T11:27:39.627Z,101626.59
2018-09-30T11:30:08.494Z,101613.59
2018-09-30T11:32:37.359Z,101633.30
2018-09-30T11:35:06.259Z,101626.24
2018-09-30T11:37:36.499Z,101594.31
2018-09-30T11:40:06.066Z,101615.12
2018-09-30T11:42:34.973Z,101619.52
2018-09-30T11:45:03.885Z,101612.23
2018-09-30T11:47:32.704Z,101625.94
2018-09-30T11:50:01.595Z,101630.12
2018-09-30T11:52:30.452Z,101613.48
2018-09-30T11:54:59.291Z,101611.95
2018-09-30T11:57:28.167Z,101624.89
2018-09-30T11:59:56.999Z,101615.48
2018-09-30T12:02:25.949Z,101583.38
2018-09-30T12:04:54.928Z,101620.72
2018-09-30T12:07:23.783Z,101615.57
2018-09-30T12:09:52.610Z,101538.59
2018-09-30T12:12:21.492Z,101593.34
2018-09-30T12:14:50.358Z,101610.32
2018-09-30T12:17:20.454Z,101602.14
2018-09-30T12:19:49.303Z,101577.20
2018-09-30T12:22:18.140Z,101615.47
2018-09-30T12:24:47.015Z,101609.95
2018-09-30T12:27:15.817Z,101563.09
2018-09-30T12:29:44.641Z,101566.08
2018-09-30T12:32:13.531Z,101575.48
2018-09-30T12:34:42.400Z,101578.52
2018-09-30T12:37:11.328Z,101587.50
2018-09-30T12:39:40.142Z,101590.12
2018-09-30T12:42:10.199Z,101555.00
2018-09-30T12:44:39.055Z,101593.80
2018-09-30T12:47:07.890Z,101558.13
2018-09-30T12:49:36.731Z,101571.48
2018-09-30T12:52:05.643Z,101573.01
2018-09-30T12:54:34.490Z,101566.89
2018-09-30T12:57:03.338Z,101549.85
2018-09-30T12:59:33.450Z,101561.62
2018-09-30T13:02:02.576Z,101564.01
2018-09-30T13:04:31.436Z,101565.31
2018-09-30T13:07:00.262Z,101530.31
2018-09-30T13:09:29.228Z,101577.56
2018-09-30T13:11:58.059Z,101561.41
2018-09-30T13:14:26.899Z,101517.09
2018-09-30T13:16:55.804Z,101557.99
2018-09-30T13:19:24.677Z,101532.23
2018-09-30T13:21:53.654Z,101487.23
2018-09-30T13:24:22.505Z,101580.17
2018-09-30T13:26:51.335Z,101523.28
2018-09-30T13:29:20.239Z,101555.67
2018-09-30T13:31:49.207Z,101542.52
2018-09-30T13:34:18.018Z,101546.98
2018-09-30T13:36:46.916Z,101517.84
2018-09-30T13:39:17.263Z,101518.47
2018-09-30T13:41:46.114Z,101527.63
2018-09-30T13:44:15.055Z,101530.88
2018-09-30T13:46:43.892Z,101535.42
2018-09-30T13:49:15.605Z,101531.48
2018-09-30T13:51:45.819Z,101507.95
2018-09-30T13:54:14.822Z,101544.22
2018-09-30T13:56:43.687Z,101523.48
2018-09-30T13:59:12.527Z,101520.19
2018-09-30T14:01:42.635Z,101526.61
2018-09-30T14:04:14.045Z,101496.70
2018-09-30T14:06:42.888Z,101527.53
2018-09-30T14:09:11.882Z,101497.70
2018-09-30T14:11:40.734Z,101513.03
2018-09-30T14:14:09.577Z,101527.53
2018-09-30T14:16:38.473Z,101523.31
2018-09-30T14:19:07.403Z,101526.39
2018-09-30T14:21:36.280Z,101530.16
2018-09-30T14:24:05.094Z,101507.61
2018-09-30T14:26:33.907Z,101503.53
2018-09-30T14:29:03.996Z,101516.14
2018-09-30T14:31:32.843Z,101501.37
2018-09-30T14:34:01.782Z,101525.08
2018-09-30T14:36:31.847Z,101539.72
2018-09-30T14:39:00.663Z,101519.17
2018-09-30T14:41:29.470Z,101514.41
2018-09-30T14:43:58.651Z,101517.27
2018-09-30T14:46:27.459Z,101505.09
2018-09-30T14:48:56.274Z,101521.16
2018-09-30T14:51:25.130Z,101531.03
2018-09-30T14:53:55.189Z,101513.19
2018-09-30T14:56:24.182Z,101509.64
2018-09-30T14:58:53.124Z,101497.18
2018-09-30T15:01:21.967Z,101513.78
2018-09-30T15:03:52.185Z,101495.41
2018-09-30T15:06:21.176Z,101509.58
2018-09-30T15:08:51.406Z,101501.70
2018-09-30T15:13:54.378Z,101504.27
2018-09-30T15:16:23.247Z,101499.34
2018-09-30T15:18:53.321Z,101500.33
2018-09-30T15:21:22.137Z,101494.69
2018-09-30T15:23:50.971Z,101505.54
2018-09-30T15:26:19.946Z,101489.98
2018-09-30T15:28:48.812Z,101504.19
2018-09-30T15:31:20.362Z,101497.48
2018-09-30T15:33:49.191Z,101480.68
2018-09-30T15:36:18.139Z,101500.66
2018-09-30T15:38:47.568Z,101502.55
2018-09-30T15:41:16.443Z,101488.98
2018-09-30T15:43:45.284Z,101496.31
2018-09-30T15:46:14.159Z,101525.36
2018-09-30T15:48:43.024Z,101495.69
2018-09-30T15:51:11.912Z,101514.19
2018-09-30T15:53:42.176Z,101512.17
2018-09-30T15:56:12.458Z,101493.41
2018-09-30T15:58:41.312Z,101513.86
2018-09-30T16:01:10.240Z,101497.97
2018-09-30T16:03:40.430Z,101503.78
2018-09-30T16:06:09.260Z,101511.62
2018-09-30T16:08:38.114Z,101502.52
2018-09-30T16:11:08.683Z,101495.61
2018-09-30T16:13:37.542Z,101502.69
2018-09-30T16:16:06.482Z,101490.25
2018-09-30T16:18:36.641Z,101511.03
2018-09-30T16:21:05.663Z,101493.95
2018-09-30T16:23:34.980Z,101513.30
2018-09-30T16:26:03.918Z,101484.44
2018-09-30T16:28:32.767Z,101502.39
2018-09-30T16:31:01.737Z,101507.16
2018-09-30T16:33:33.416Z,101513.14
2018-09-30T16:36:03.028Z,101505.05
2018-09-30T16:38:31.955Z,101505.63
2018-09-30T16:41:00.897Z,101512.45
2018-09-30T16:43:29.822Z,101515.45
2018-09-30T16:45:59.969Z,101515.11
2018-09-30T16:48:30.297Z,101501.75
2018-09-30T16:50:59.207Z,101509.04
2018-09-30T16:53:28.388Z,101507.82
2018-09-30T16:55:58.240Z,101508.48
2018-09-30T16:58:28.567Z,101509.88
2018-09-30T17:00:57.460Z,101524.08
2018-09-30T17:03:26.461Z,101511.83
2018-09-30T17:05:56.756Z,101514.00
2018-09-30T17:08:25.718Z,101514.94
2018-09-30T17:10:54.718Z,101510.00
2018-09-30T17:13:23.954Z,101499.27
2018-09-30T17:15:52.920Z,101523.23
2018-09-30T17:18:21.755Z,101490.59
2018-09-30T17:20:50.751Z,101475.29
2018-09-30T17:23:19.742Z,101506.63
2018-09-30T17:25:48.921Z,101498.33
2018-09-30T17:28:17.912Z,101509.83
2018-09-30T17:30:47.462Z,101508.41
2018-09-30T17:33:16.349Z,101502.72
2018-09-30T17:35:45.201Z,101475.58
2018-09-30T17:38:14.048Z,101494.03
2018-09-30T17:40:42.958Z,101493.48
2018-09-30T17:43:11.899Z,101489.28
2018-09-30T17:45:40.779Z,101499.72
2018-09-30T17:48:11.442Z,101496.56
2018-09-30T17:50:40.511Z,101497.48
2018-09-30T17:53:09.539Z,101491.72
2018-09-30T17:55:38.443Z,101483.97
2018-09-30T17:58:07.323Z,101497.48
2018-09-30T18:00:38.817Z,101502.16
2018-09-30T18:03:09.215Z,101495.26
2018-09-30T18:05:39.679Z,101495.34
2018-09-30T18:08:09.586Z,101497.11
2018-09-30T18:10:39.528Z,101498.16
2018-09-30T18:13:09.282Z,101495.34
2018-09-30T18:15:39.353Z,101489.02
2018-09-30T18:18:08.547Z,101488.47
2018-09-30T18:20:40.095Z,101478.31
2018-09-30T18:23:10.604Z,101479.03
2018-09-30T18:25:42.341Z,101483.42
2018-09-30T18:28:12.863Z,101492.47
2018-09-30T18:30:44.642Z,101486.88
2018-09-30T18:33:14.970Z,101495.08
2018-09-30T18:35:45.272Z,101458.98
2018-09-30T18:38:14.400Z,101481.01
2018-09-30T18:40:48.883Z,101471.41
2018-09-30T18:43:20.372Z,101460.03
2018-09-30T18:45:50.860Z,101472.25
2018-09-30T18:48:20.692Z,101482.06
2018-09-30T18:50:51.657Z,101477.77
2018-09-30T18:53:21.099Z,101467.31
2018-09-30T18:55:50.159Z,101466.47
2018-09-30T18:58:19.097Z,101479.99
2018-09-30T19:00:48.053Z,101455.94
2018-09-30T19:03:17.007Z,101456.87
2018-09-30T19:05:47.313Z,101464.88
2018-09-30T19:08:16.165Z,101459.56
2018-09-30T19:10:45.011Z,101457.50
2018-09-30T19:13:13.889Z,101451.44
2018-09-30T19:15:43.189Z,101466.73
2018-09-30T19:18:12.006Z,101440.99
2018-09-30T19:20:42.107Z,101448.07
2018-09-30T19:23:11.078Z,101442.88
2018-09-30T19:25:40.000Z,101447.14
2018-09-30T19:28:11.487Z,101437.54
2018-09-30T19:30:40.375Z,101451.35
2018-09-30T19:33:09.237Z,101432.78
2018-09-30T19:35:39.417Z,101429.83
2018-09-30T19:38:08.558Z,101389.02
2018-09-30T19:40:37.624Z,101429.74
2018-09-30T19:43:08.106Z,101438.80
2018-09-30T19:45:37.032Z,101421.27
2018-09-30T19:48:06.872Z,101423.68
2018-09-30T19:50:35.851Z,101421.82
2018-09-30T19:53:04.785Z,101418.92
2018-09-30T19:55:33.687Z,101432.82
2018-09-30T19:58:03.888Z,101428.98
2018-09-30T20:00:32.726Z,101418.62
2018-09-30T20:03:01.559Z,101399.33
2018-09-30T20:05:30.446Z,101402.66
2018-09-30T20:07:59.415Z,101404.67
2018-09-30T20:10:28.311Z,101384.80
2018-09-30T20:12:58.361Z,101399.55
2018-09-30T20:15:27.436Z,101386.95
2018-09-30T20:17:56.292Z,101401.90
2018-09-30T20:20:25.556Z,101366.42
2018-09-30T20:22:54.412Z,101385.17
2018-09-30T20:25:23.254Z,101349.08
2018-09-30T20:27:53.362Z,101400.01
2018-09-30T20:30:22.191Z,101396.00
2018-09-30T20:32:51.021Z,101349.54
2018-09-30T20:35:19.878Z,101362.52
2018-09-30T20:37:48.698Z,101365.03
2018-09-30T20:40:17.506Z,101347.09
2018-09-30T20:42:46.382Z,101364.14
2018-09-30T20:45:16.635Z,101317.12
2018-09-30T20:47:46.874Z,101353.70
2018-09-30T20:50:17.319Z,101360.30
2018-09-30T20:52:46.157Z,101347.39
2018-09-30T20:55:14.966Z,101337.25
2018-09-30T20:57:43.775Z,101336.97
2018-09-30T21:00:12.651Z,101329.25
2018-09-30T21:02:41.472Z,101325.33
2018-09-30T21:06:16.570Z,101347.95
2018-09-30T21:08:46.250Z,101345.80
2018-09-30T21:11:15.142Z,101346.27
2018-09-30T21:13:44.115Z,101320.14
2018-09-30T21:16:13.434Z,101340.11
2018-09-30T21:18:42.440Z,101323.13
2018-09-30T21:21:11.295Z,101323.50
2018-09-30T21:23:40.115Z,101305.59
2018-09-30T21:26:09.027Z,101312.13
2018-09-30T21:28:37.868Z,101334.58
2018-09-30T21:31:06.831Z,101346.71
2018-09-30T21:33:35.804Z,101315.70
2018-09-30T21:36:04.663Z,101306.46
2018-09-30T21:38:33.584Z,101317.97
2018-09-30T21:41:02.437Z,101313.68
2018-09-30T21:43:31.302Z,101327.58
2018-09-30T21:46:00.183Z,101319.16
2018-09-30T21:48:29.069Z,101294.17
2018-09-30T21:50:57.993Z,101309.77
2018-09-30T21:53:26.932Z,101290.75
2018-09-30T21:55:55.888Z,101285.41
2018-09-30T21:58:24.765Z,101311.16
2018-09-30T22:01:02.850Z,101281.48
2018-09-30T22:03:31.936Z,101289.76
2018-09-30T22:06:00.898Z,101283.38
2018-09-30T22:08:29.858Z,101300.21
2018-09-30T22:10:58.750Z,101278.19
2018-09-30T22:13:27.629Z,101286.62
2018-09-30T22:15:56.549Z,101282.95
2018-09-30T22:18:25.668Z,101281.02
2018-09-30T22:20:54.561Z,101285.24
2018-09-30T22:23:23.445Z,101275.38
2018-09-30T22:25:52.377Z,101270.78
2018-09-30T22:28:21.249Z,101265.41
2018-09-30T22:30:50.079Z,101260.23
2018-09-30T22:33:18.895Z,101271.03
2018-09-30T22:35:47.760Z,101272.55
2018-09-30T22:38:16.585Z,101259.70
2018-09-30T22:40:45.411Z,101253.64
2018-09-30T22:43:15.738Z,101268.47
2018-09-30T22:45:44.529Z,101258.23
2018-09-30T22:48:13.344Z,101262.53
2018-09-30T22:50:42.230Z,101250.96
2018-09-30T22:53:11.114Z,101277.45
2018-09-30T22:55:39.946Z,101231.38
2018-09-30T22:58:08.792Z,101264.61
2018-09-30T23:00:37.659Z,101246.17
2018-09-30T23:03:06.470Z,101258.17
2018-09-30T23:05:35.302Z,101239.43
2018-09-30T23:08:04.233Z,101241.48
2018-09-30T23:10:33.043Z,101232.12
2018-09-30T23:13:01.860Z,101231.20
2018-09-30T23:15:30.726Z,101234.73
2018-09-30T23:17:59.562Z,101225.02
2018-09-30T23:20:28.385Z,101217.17
2018-09-30T23:22:57.182Z,101198.56
2018-09-30T23:25:26.102Z,101210.65
2018-09-30T23:27:54.898Z,101215.09
2018-09-30T23:30:23.686Z,101194.20
2018-09-30T23:32:52.550Z,101192.13
2018-09-30T23:35:21.359Z,101187.27
2018-09-30T23:37:50.169Z,101188.20
2018-09-30T23:40:19.066Z,101188.67
2018-09-30T23:42:47.900Z,101190.22
2018-09-30T23:45:16.792Z,101174.83
2018-09-30T23:47:47.035Z,101179.21
2018-09-30T23:50:15.871Z,101180.52
2018-09-30T23:52:44.741Z,101158.09
2018-09-30T23:55:13.575Z,101166.67
2018-09-30T23:57:42.365Z,101166.08
